Time;durP1;ratioP1;P1;durP2;ratioP2;P2;SDS_P1;SDS_P2;PMS_P1;PMS_P2;Temp;Humidity;BMP_temperature;BMP_pressure;BME280_temperature;BME280_humidity;BME280_pressure;Samples;Min_cycle;Max_cycle;Signal;HPM_P1;HPM_P2
2022/09/12 00:01:50;;;;;;;33.33;24.40;;;22.70;99.90;;;;;;5013558;28;20257;-93
2022/09/12 00:04:22;;;;;;;30.53;25.20;;;22.60;99.90;;;;;;5005799;28;20205;-93
2022/09/12 00:10:05;;;;;;;29.07;25.27;;;22.50;99.90;;;;;;5016176;28;20229;-93
2022/09/12 00:15:40;;;;;;;31.67;25.23;;;22.50;99.90;;;;;;5011436;28;20210;-93
2022/09/12 00:18:18;;;;;;;31.20;24.77;;;22.50;99.90;;;;;;5007199;28;20205;-92
2022/09/12 00:21:18;;;;;;;31.60;24.83;;;22.50;99.90;;;;;;5012830;28;20226;-93
2022/09/12 00:23:49;;;;;;;34.20;27.17;;;22.40;99.90;;;;;;5003023;28;20234;-92
2022/09/12 00:26:26;;;;;;;33.83;26.10;;;22.30;99.90;;;;;;5008839;28;20206;-93
2022/09/12 00:37:39;;;;;;;34.50;27.37;;;22.10;99.90;;;;;;5010464;28;20208;-93
2022/09/12 00:40:12;;;;;;;35.83;27.20;;;22.10;99.90;;;;;;5007992;28;20250;-93
2022/09/12 00:42:49;;;;;;;37.17;27.63;;;22.10;99.90;;;;;;5005594;28;20210;-92
2022/09/12 00:45:25;;;;;;;36.07;27.63;;;22.00;99.90;;;;;;5001175;28;20216;-93
2022/09/12 00:47:59;;;;;;;35.00;27.07;;;22.00;99.90;;;;;;4999620;28;20632;-93
2022/09/12 00:56:23;;;;;;;37.70;27.50;;;22.00;99.90;;;;;;4971471;29;20266;-92
2022/09/12 00:59:00;;;;;;;31.73;27.60;;;22.00;99.90;;;;;;4961328;29;20291;-92
2022/09/12 01:01:32;;;;;;;33.67;28.37;;;21.90;99.90;;;;;;4959976;29;20235;-94
2022/09/12 01:04:04;;;;;;;34.20;28.27;;;22.00;99.90;;;;;;4960973;28;20513;-91
2022/09/12 01:06:39;;;;;;;33.60;27.30;;;21.90;99.90;;;;;;4961865;28;20215;-92
2022/09/12 01:12:19;;;;;;;31.90;26.97;;;21.80;99.90;;;;;;4970054;29;20209;-92
2022/09/12 01:18:15;;;;;;;34.67;26.77;;;21.70;99.90;;;;;;4977172;28;20199;-92
2022/09/12 01:21:06;;;;;;;36.27;25.63;;;21.70;99.90;;;;;;4963937;28;20323;-93
2022/09/12 01:24:23;;;;;;;37.43;27.10;;;21.70;99.90;;;;;;4959579;28;20715;-92
2022/09/12 01:27:26;;;;;;;33.80;26.10;;;21.60;99.90;;;;;;4960642;29;20211;-93
2022/09/12 01:30:40;;;;;;;34.73;24.57;;;21.60;99.90;;;;;;4961049;29;20248;-92
2022/09/12 01:33:45;;;;;;;35.43;25.90;;;21.60;99.90;;;;;;4956014;28;20722;-93
2022/09/12 01:36:34;;;;;;;30.73;24.63;;;21.60;99.90;;;;;;4960347;28;20260;-93
2022/09/12 01:39:08;;;;;;;33.83;24.07;;;21.50;99.90;;;;;;4966278;28;20214;-92
2022/09/12 01:41:50;;;;;;;32.93;24.73;;;21.60;99.90;;;;;;4959504;28;20734;-93
2022/09/12 01:44:33;;;;;;;27.30;23.90;;;21.50;99.90;;;;;;4972335;28;20275;-93
2022/09/12 01:50:08;;;;;;;29.37;24.30;;;21.40;99.90;;;;;;4973170;28;20223;-92
2022/09/12 01:55:55;;;;;;;29.87;23.77;;;21.30;99.90;;;;;;4967161;28;20295;-93
2022/09/12 01:58:33;;;;;;;33.30;24.13;;;21.20;99.90;;;;;;4956259;28;20216;-93
2022/09/12 02:04:07;;;;;;;31.97;23.93;;;21.10;99.90;;;;;;4952173;29;20207;-92
2022/09/12 02:07:09;;;;;;;32.80;24.70;;;21.00;99.90;;;;;;4953074;29;20268;-93
2022/09/12 02:09:47;;;;;;;31.60;23.80;;;21.00;99.90;;;;;;4952574;29;20216;-93
2022/09/12 02:12:42;;;;;;;31.23;24.43;;;21.00;99.90;;;;;;4952857;29;20208;-93
2022/09/12 02:15:34;;;;;;;27.87;23.40;;;20.90;99.90;;;;;;4952592;29;20209;-93
2022/09/12 02:20:57;;;;;;;32.50;22.90;;;20.80;99.90;;;;;;4957145;28;20250;-93
2022/09/12 02:23:38;;;;;;;31.77;22.93;;;20.70;99.90;;;;;;4954062;29;20204;-93
2022/09/12 02:26:27;;;;;;;29.40;22.13;;;20.70;99.90;;;;;;4954912;28;20299;-92
2022/09/12 02:29:12;;;;;;;32.50;22.73;;;20.70;99.90;;;;;;4954284;28;20669;-92
2022/09/12 02:31:51;;;;;;;28.10;21.47;;;20.70;99.90;;;;;;4953761;28;20570;-93
2022/09/12 02:34:48;;;;;;;30.90;22.63;;;20.70;99.90;;;;;;4959521;28;20231;-93
2022/09/12 02:37:27;;;;;;;30.23;21.07;;;20.70;99.90;;;;;;4959745;28;20200;-92
2022/09/12 02:40:07;;;;;;;29.30;19.77;;;20.70;99.90;;;;;;4959293;28;20279;-93
2022/09/12 02:42:53;;;;;;;27.17;19.47;;;20.60;99.90;;;;;;4953094;29;20235;-93
2022/09/12 02:51:23;;;;;;;29.07;20.43;;;20.60;99.90;;;;;;4956049;28;20196;-93
2022/09/12 02:53:57;;;;;;;39.40;20.27;;;20.50;99.90;;;;;;4959257;28;20224;-93
2022/09/12 02:59:32;;;;;;;29.80;19.10;;;20.40;99.90;;;;;;4959013;28;20207;-93
2022/09/12 03:05:09;;;;;;;27.80;20.63;;;20.40;99.90;;;;;;5343508;23;20582;-91
2022/09/12 03:11:44;;;;;;;27.03;19.27;;;20.30;99.90;;;;;;4997942;28;20217;-92
2022/09/12 03:14:31;;;;;;;29.27;20.20;;;20.30;99.90;;;;;;4997368;28;20191;-93
2022/09/12 03:17:14;;;;;;;26.80;19.57;;;20.30;99.90;;;;;;4997319;28;20221;-93
2022/09/12 03:22:53;;;;;;;29.17;19.03;;;20.30;99.90;;;;;;4996316;28;20241;-93
2022/09/12 03:28:25;;;;;;;27.57;18.50;;;20.30;99.90;;;;;;4997258;28;20279;-93
2022/09/12 03:31:00;;;;;;;23.87;18.30;;;20.30;99.90;;;;;;4994981;28;20282;-92
2022/09/12 03:33:36;;;;;;;23.27;17.73;;;20.20;99.90;;;;;;5000099;28;20222;-93
2022/09/12 03:36:23;;;;;;;26.90;18.70;;;20.20;99.90;;;;;;5000656;28;20273;-93
2022/09/12 03:39:07;;;;;;;27.37;17.53;;;20.20;99.90;;;;;;5001123;28;20267;-92
2022/09/12 03:41:47;;;;;;;30.10;18.30;;;20.20;99.90;;;;;;5000368;28;20587;-92
2022/09/12 03:47:08;;;;;;;25.17;18.17;;;20.20;99.90;;;;;;4988997;28;20211;-92
2022/09/12 03:49:41;;;;;;;27.87;18.17;;;20.10;99.90;;;;;;4984594;28;20207;-93
2022/09/12 03:52:12;;;;;;;25.37;17.47;;;20.10;99.90;;;;;;4983320;28;20301;-92
2022/09/12 03:54:43;;;;;;;30.03;19.13;;;20.10;99.90;;;;;;4985683;28;20207;-93
2022/09/12 03:57:15;;;;;;;34.20;19.80;;;20.20;99.90;;;;;;4986361;28;20251;-92
2022/09/12 03:59:50;;;;;;;28.23;18.70;;;20.10;99.90;;;;;;4986100;28;20279;-93
2022/09/12 04:02:22;;;;;;;28.33;18.03;;;20.10;99.90;;;;;;4983783;28;20238;-92
2022/09/12 04:04:53;;;;;;;26.60;17.47;;;20.10;99.90;;;;;;4983771;28;20262;-95
2022/09/12 04:07:24;;;;;;;23.87;17.17;;;20.00;99.90;;;;;;4987809;28;20215;-92
2022/09/12 04:09:56;;;;;;;28.67;16.63;;;20.00;99.90;;;;;;4965005;28;20204;-93
2022/09/12 04:12:27;;;;;;;26.37;16.07;;;20.00;99.90;;;;;;4964653;28;20655;-93
2022/09/12 04:15:04;;;;;;;24.90;16.80;;;19.90;99.90;;;;;;4968687;28;20223;-94
2022/09/12 04:17:35;;;;;;;22.70;15.40;;;19.90;99.90;;;;;;4966592;28;20214;-94
2022/09/12 04:20:07;;;;;;;23.23;15.77;;;19.90;99.90;;;;;;4967186;29;20239;-94
2022/09/12 04:22:38;;;;;;;27.83;15.57;;;19.90;99.90;;;;;;4963539;29;20322;-91
2022/09/12 04:25:10;;;;;;;28.47;16.03;;;19.80;99.90;;;;;;4971906;28;20626;-92
2022/09/12 04:27:42;;;;;;;26.23;15.30;;;19.80;99.90;;;;;;4971073;28;20215;-92
2022/09/12 04:30:18;;;;;;;28.57;15.97;;;19.80;99.90;;;;;;4972233;29;20236;-92
2022/09/12 04:32:52;;;;;;;23.80;15.00;;;19.80;99.90;;;;;;4969847;29;20231;-90
2022/09/12 04:35:26;;;;;;;22.90;14.80;;;19.80;99.90;;;;;;4970142;29;20223;-91
2022/09/12 04:37:57;;;;;;;25.43;14.87;;;19.80;99.90;;;;;;4962902;28;20203;-91
2022/09/12 04:40:31;;;;;;;26.43;14.67;;;19.80;99.90;;;;;;4962173;29;20241;-94
2022/09/12 04:43:03;;;;;;;23.40;14.30;;;19.80;99.90;;;;;;4975991;28;20242;-93
2022/09/12 04:45:36;;;;;;;23.73;13.50;;;19.70;99.90;;;;;;4961651;28;20644;-94
2022/09/12 04:48:08;;;;;;;25.07;15.23;;;19.70;99.90;;;;;;4961975;29;20263;-94
2022/09/12 04:50:39;;;;;;;28.60;14.63;;;19.60;99.90;;;;;;4962088;29;20215;-94
2022/09/12 04:53:10;;;;;;;23.63;13.50;;;19.60;99.90;;;;;;4962105;29;20208;-93
2022/09/12 04:55:41;;;;;;;19.20;13.97;;;19.60;99.90;;;;;;4968773;29;20208;-94
2022/09/12 04:58:13;;;;;;;24.87;14.97;;;19.50;99.90;;;;;;4965475;28;20369;-94
2022/09/12 05:00:47;;;;;;;24.30;13.47;;;19.50;99.90;;;;;;4965671;29;20225;-93
2022/09/12 05:03:20;;;;;;;31.00;15.20;;;19.50;99.90;;;;;;4975465;29;20243;-94
2022/09/12 05:05:52;;;;;;;23.87;14.20;;;19.50;99.90;;;;;;4979226;28;20278;-94
2022/09/12 05:08:25;;;;;;;20.53;13.60;;;19.40;99.90;;;;;;4979215;28;20215;-94
2022/09/12 05:10:58;;;;;;;27.90;14.33;;;19.30;99.90;;;;;;4977223;28;20207;-94
2022/09/12 05:13:32;;;;;;;24.37;13.17;;;19.30;99.90;;;;;;4976361;29;20248;-92
2022/09/12 05:16:07;;;;;;;25.80;13.93;;;19.30;99.90;;;;;;4977464;28;20254;-92
2022/09/12 05:18:40;;;;;;;20.90;13.10;;;19.30;99.90;;;;;;4979331;28;20199;-92
2022/09/12 05:21:15;;;;;;;26.07;13.13;;;19.30;99.90;;;;;;4978019;28;20703;-92
2022/09/12 05:23:46;;;;;;;27.90;14.57;;;19.30;99.90;;;;;;4974276;28;20242;-92
2022/09/12 05:26:19;;;;;;;24.33;13.00;;;19.20;99.90;;;;;;4974005;29;20207;-92
2022/09/12 05:28:51;;;;;;;24.50;13.00;;;19.20;99.90;;;;;;4966772;29;20299;-94
2022/09/12 05:31:26;;;;;;;23.20;13.00;;;19.10;99.90;;;;;;4962879;28;20214;-91
2022/09/12 05:33:58;;;;;;;24.70;13.03;;;19.20;99.90;;;;;;4962945;29;20703;-92
2022/09/12 05:36:31;;;;;;;28.70;12.80;;;19.10;99.90;;;;;;4964317;28;20203;-91
2022/09/12 05:39:02;;;;;;;21.10;11.83;;;19.10;99.90;;;;;;4963698;28;20235;-91
2022/09/12 05:41:35;;;;;;;27.10;13.27;;;19.10;99.90;;;;;;4961487;29;20583;-95
2022/09/12 05:44:07;;;;;;;23.03;13.60;;;19.10;99.90;;;;;;4961306;29;20730;-92
2022/09/12 05:46:50;;;;;;;27.20;13.67;;;19.10;99.90;;;;;;4978388;28;20213;-92
2022/09/12 05:49:21;;;;;;;28.67;13.07;;;19.10;99.90;;;;;;4982352;28;20221;-92
2022/09/12 05:51:52;;;;;;;24.90;13.37;;;19.10;99.90;;;;;;4980015;28;20211;-92
2022/09/12 05:54:24;;;;;;;25.07;13.03;;;19.00;99.90;;;;;;4980393;28;20602;-92
2022/09/12 05:57:00;;;;;;;25.00;13.67;;;19.00;99.90;;;;;;4979288;28;20210;-92
2022/09/12 05:59:32;;;;;;;29.20;14.57;;;19.00;99.90;;;;;;4980417;28;20289;-92
2022/09/12 06:02:05;;;;;;;27.03;13.83;;;18.90;99.90;;;;;;4979433;28;20262;-92
2022/09/12 06:04:37;;;;;;;22.83;13.33;;;18.90;99.90;;;;;;4979967;28;20672;-91
2022/09/12 06:07:08;;;;;;;26.60;13.87;;;18.90;99.90;;;;;;4981031;28;20282;-92
2022/09/12 06:09:40;;;;;;;23.73;13.37;;;18.90;99.90;;;;;;4983566;28;20238;-91
2022/09/12 06:12:12;;;;;;;23.93;13.77;;;18.80;99.90;;;;;;4980905;28;20215;-93
2022/09/12 06:14:43;;;;;;;23.43;13.27;;;18.90;99.90;;;;;;4982733;28;20197;-92
2022/09/12 06:17:18;;;;;;;27.33;13.43;;;18.90;99.90;;;;;;4983353;28;20260;-92
2022/09/12 06:19:49;;;;;;;28.33;13.73;;;18.80;99.90;;;;;;4980646;28;20297;-93
2022/09/12 06:22:20;;;;;;;24.27;13.00;;;18.80;99.90;;;;;;4979758;28;20218;-92
2022/09/12 06:24:55;;;;;;;26.90;13.37;;;18.60;99.90;;;;;;4980602;28;20214;-92
2022/09/12 06:27:39;;;;;;;24.40;13.73;;;18.60;99.90;;;;;;4987331;28;20209;-93
2022/09/12 06:30:12;;;;;;;24.27;12.83;;;18.60;99.90;;;;;;4980726;28;20290;-92
2022/09/12 06:32:46;;;;;;;24.37;13.30;;;18.60;99.90;;;;;;4985222;28;20255;-93
2022/09/12 06:35:20;;;;;;;26.50;14.13;;;18.60;99.90;;;;;;4979100;28;20210;-92
2022/09/12 06:37:52;;;;;;;26.23;13.60;;;18.60;99.90;;;;;;4989472;28;20310;-91
2022/09/12 06:40:27;;;;;;;26.70;13.63;;;18.60;99.90;;;;;;4981192;28;20206;-92
2022/09/12 06:42:58;;;;;;;26.87;12.63;;;18.60;99.90;;;;;;4978767;28;20238;-92
2022/09/12 06:45:29;;;;;;;27.03;12.67;;;18.60;99.90;;;;;;4979214;28;20222;-93
2022/09/12 06:48:02;;;;;;;25.90;12.77;;;18.60;99.90;;;;;;4978336;28;20215;-91
2022/09/12 06:50:33;;;;;;;26.80;12.97;;;18.60;99.90;;;;;;4960267;28;20222;-93
2022/09/12 06:56:06;;;;;;;28.83;12.10;;;18.50;99.90;;;;;;4964906;28;20208;-93
2022/09/12 06:58:38;;;;;;;20.43;12.30;;;18.60;99.90;;;;;;4965825;28;20227;-92
2022/09/12 07:01:12;;;;;;;24.63;12.23;;;18.50;99.90;;;;;;4959887;28;20636;-92
2022/09/12 07:03:49;;;;;;;25.23;13.27;;;18.50;99.90;;;;;;4959124;28;20235;-93
2022/09/12 07:06:22;;;;;;;27.53;13.17;;;18.50;99.90;;;;;;4959684;28;20229;-92
2022/09/12 07:08:54;;;;;;;24.43;13.30;;;18.50;99.90;;;;;;4963210;28;20234;-92
2022/09/12 07:11:29;;;;;;;28.80;12.93;;;18.50;99.90;;;;;;4963321;28;20215;-92
2022/09/12 07:14:01;;;;;;;23.77;12.60;;;18.50;99.90;;;;;;4963424;28;20324;-93
2022/09/12 07:16:32;;;;;;;25.23;12.47;;;18.50;99.90;;;;;;4963114;28;20267;-92
2022/09/12 07:19:08;;;;;;;26.27;13.27;;;18.40;99.90;;;;;;4963445;28;20263;-92
2022/09/12 07:21:40;;;;;;;27.07;12.77;;;18.40;99.90;;;;;;4972445;28;20277;-94
2022/09/12 07:24:12;;;;;;;20.17;11.87;;;18.40;99.90;;;;;;4981818;28;20285;-92
2022/09/12 07:26:44;;;;;;;22.83;11.93;;;18.40;99.90;;;;;;4988959;28;20213;-92
2022/09/12 07:29:17;;;;;;;23.10;12.80;;;18.30;99.90;;;;;;4983148;28;20242;-93
2022/09/12 07:32:06;;;;;;;25.90;12.37;;;18.30;99.90;;;;;;4981142;28;20260;-92
2022/09/12 07:34:41;;;;;;;25.17;13.00;;;18.30;99.90;;;;;;4983962;28;20207;-93
2022/09/12 07:37:13;;;;;;;24.83;12.93;;;18.30;99.90;;;;;;4982495;28;20206;-92
2022/09/12 07:39:44;;;;;;;25.17;12.23;;;18.30;99.90;;;;;;4982011;28;20207;-93
2022/09/12 07:42:16;;;;;;;25.90;12.73;;;18.20;99.90;;;;;;4983235;28;20543;-93
2022/09/12 07:44:47;;;;;;;21.57;12.80;;;18.20;99.90;;;;;;4983834;28;20231;-93
2022/09/12 07:47:18;;;;;;;24.47;12.27;;;18.20;99.90;;;;;;4985985;28;20253;-93
2022/09/12 07:49:53;;;;;;;24.70;12.43;;;18.20;99.90;;;;;;4983448;28;20214;-92
2022/09/12 07:52:24;;;;;;;23.17;12.30;;;18.20;99.90;;;;;;4981322;28;20203;-92
2022/09/12 07:54:55;;;;;;;23.03;12.53;;;18.20;99.90;;;;;;4982502;28;20206;-92
2022/09/12 07:57:27;;;;;;;25.83;12.63;;;18.20;99.90;;;;;;4984169;28;20210;-92
2022/09/12 07:59:58;;;;;;;26.27;12.70;;;18.20;99.90;;;;;;4982607;28;20215;-93
2022/09/12 08:02:29;;;;;;;27.87;13.43;;;18.20;99.90;;;;;;4982508;28;20294;-92
2022/09/12 08:05:04;;;;;;;27.97;13.10;;;18.20;99.90;;;;;;4991040;28;20215;-93
2022/09/12 08:07:36;;;;;;;27.33;13.43;;;18.10;99.90;;;;;;4999235;28;20279;-91
2022/09/12 08:10:08;;;;;;;23.87;13.00;;;18.10;99.90;;;;;;4980429;28;20279;-92
2022/09/12 08:12:40;;;;;;;29.13;13.43;;;18.10;99.90;;;;;;5068564;23;20249;-92
2022/09/12 08:15:12;;;;;;;23.97;12.93;;;18.10;99.90;;;;;;4996841;28;20731;-92
2022/09/12 08:17:44;;;;;;;23.87;12.77;;;18.00;99.90;;;;;;4983801;28;20217;-92
2022/09/12 08:20:18;;;;;;;26.07;14.20;;;18.00;99.90;;;;;;4981163;28;20232;-93
2022/09/12 08:22:49;;;;;;;22.43;12.50;;;18.00;99.90;;;;;;4981140;28;20222;-92
2022/09/12 08:25:20;;;;;;;25.67;12.83;;;18.00;99.90;;;;;;4981371;28;20242;-92
2022/09/12 08:27:52;;;;;;;25.80;12.73;;;18.00;99.90;;;;;;4981067;28;20691;-92
2022/09/12 08:30:23;;;;;;;26.90;13.23;;;18.00;99.90;;;;;;4981446;28;20285;-92
2022/09/12 08:32:54;;;;;;;25.97;13.50;;;17.90;99.90;;;;;;4980546;28;20237;-92
2022/09/12 08:35:29;;;;;;;23.97;12.50;;;17.90;99.90;;;;;;4981454;28;20215;-91
2022/09/12 08:38:01;;;;;;;25.93;13.03;;;17.90;99.90;;;;;;4980883;28;20217;-92
2022/09/12 08:40:32;;;;;;;28.80;13.87;;;17.90;99.90;;;;;;4981495;28;20215;-92
2022/09/12 08:43:16;;;;;;;22.27;12.20;;;17.90;99.90;;;;;;4980099;28;20219;-92
2022/09/12 08:45:55;;;;;;;25.63;13.07;;;17.90;99.90;;;;;;4980794;28;20219;-92
2022/09/12 08:48:26;;;;;;;24.33;13.60;;;17.80;99.90;;;;;;4981015;28;20211;-93
2022/09/12 08:51:00;;;;;;;24.43;13.30;;;17.70;99.90;;;;;;4980568;28;20315;-92
2022/09/12 08:53:35;;;;;;;23.03;12.73;;;17.70;99.90;;;;;;4979347;28;20650;-92
2022/09/12 08:56:10;;;;;;;22.87;13.10;;;17.70;99.90;;;;;;4979580;28;20216;-92
2022/09/12 08:58:43;;;;;;;22.40;13.30;;;17.70;99.90;;;;;;4979739;28;20328;-91
2022/09/12 09:01:27;;;;;;;27.73;13.07;;;17.70;99.90;;;;;;4979157;28;20221;-93
2022/09/12 09:04:23;;;;;;;22.03;12.67;;;17.70;99.90;;;;;;4981708;28;20247;-93
2022/09/12 09:07:35;;;;;;;24.80;12.90;;;17.60;99.90;;;;;;4979737;28;20599;-93
2022/09/12 09:10:19;;;;;;;27.90;13.37;;;17.50;99.90;;;;;;4979051;28;20221;-93
2022/09/12 09:12:57;;;;;;;25.27;13.40;;;17.50;99.90;;;;;;4979437;28;20227;-93
2022/09/12 09:15:44;;;;;;;25.93;13.60;;;17.40;99.90;;;;;;4980024;28;20210;-93
2022/09/12 09:18:22;;;;;;;23.63;13.33;;;17.40;99.90;;;;;;4979640;28;20215;-93
2022/09/12 09:20:57;;;;;;;26.27;12.77;;;17.40;99.90;;;;;;4979813;28;20207;-93
2022/09/12 09:23:32;;;;;;;24.70;12.80;;;17.40;99.90;;;;;;4979370;28;20225;-93
2022/09/12 09:26:07;;;;;;;29.00;12.93;;;17.30;99.90;;;;;;4978784;28;20231;-93
2022/09/12 09:28:45;;;;;;;25.13;13.73;;;17.30;99.90;;;;;;4979559;28;20568;-93
2022/09/12 09:31:18;;;;;;;28.70;13.33;;;17.30;99.90;;;;;;4978518;28;20691;-93
2022/09/12 09:33:52;;;;;;;23.70;12.77;;;17.30;99.90;;;;;;4978412;28;20210;-93
2022/09/12 09:36:39;;;;;;;27.53;12.77;;;17.30;99.90;;;;;;4980018;28;20218;-92
2022/09/12 09:39:20;;;;;;;28.93;14.13;;;17.40;99.90;;;;;;4979547;28;20230;-93
2022/09/12 09:42:03;;;;;;;22.03;13.30;;;17.40;99.90;;;;;;4978535;28;20900;-93
2022/09/12 09:44:34;;;;;;;22.47;13.30;;;17.40;99.90;;;;;;4979450;28;20234;-93
2022/09/12 09:47:06;;;;;;;31.17;13.97;;;17.30;99.90;;;;;;4979602;28;20579;-93
2022/09/12 09:49:38;;;;;;;27.97;14.37;;;17.30;99.90;;;;;;4979465;28;20716;-93
2022/09/12 09:52:13;;;;;;;27.90;13.90;;;17.30;99.90;;;;;;4978451;28;20229;-93
2022/09/12 09:54:51;;;;;;;27.10;14.47;;;17.30;99.90;;;;;;4979483;28;20212;-94
2022/09/12 09:57:45;;;;;;;24.80;13.30;;;17.30;99.90;;;;;;4979348;28;20203;-93
2022/09/12 10:00:30;;;;;;;23.97;13.83;;;17.30;99.90;;;;;;4980306;28;20217;-94
2022/09/12 10:03:30;;;;;;;25.40;14.43;;;17.30;99.90;;;;;;4961260;28;20234;-94
2022/09/12 10:06:03;;;;;;;31.60;15.43;;;17.30;99.90;;;;;;4954968;28;20239;-94
2022/09/12 10:08:37;;;;;;;27.73;15.13;;;17.30;99.90;;;;;;4972289;28;20205;-94
2022/09/12 10:11:25;;;;;;;28.17;15.23;;;17.30;99.90;;;;;;4980996;28;20214;-92
2022/09/12 10:13:59;;;;;;;31.10;14.93;;;17.30;99.90;;;;;;4980547;28;20258;-92
2022/09/12 10:16:32;;;;;;;32.13;15.00;;;17.30;99.90;;;;;;4983576;28;20225;-93
2022/09/12 10:19:04;;;;;;;29.17;15.47;;;17.30;99.90;;;;;;4979732;28;20239;-92
2022/09/12 10:21:38;;;;;;;31.73;15.57;;;17.30;99.90;;;;;;4979564;28;20233;-94
2022/09/12 10:24:23;;;;;;;28.20;15.67;;;17.30;99.90;;;;;;4981495;28;20226;-93
2022/09/12 10:27:16;;;;;;;28.23;15.63;;;17.30;99.90;;;;;;4982960;28;20569;-93
2022/09/12 10:29:50;;;;;;;31.80;15.87;;;17.30;99.90;;;;;;4979580;28;20211;-94
2022/09/12 10:32:28;;;;;;;26.10;15.07;;;17.30;99.90;;;;;;4962744;28;20242;-92
2022/09/12 10:35:03;;;;;;;27.70;15.43;;;17.30;99.90;;;;;;4960470;28;20317;-93
2022/09/12 10:37:37;;;;;;;31.20;16.80;;;17.30;99.90;;;;;;4959345;28;20207;-93
2022/09/12 10:40:23;;;;;;;29.13;16.53;;;17.30;99.90;;;;;;4959021;28;20217;-93
2022/09/12 10:42:58;;;;;;;33.00;16.17;;;17.20;99.90;;;;;;4957844;28;20218;-93
2022/09/12 10:45:32;;;;;;;29.17;15.83;;;17.20;99.90;;;;;;4959337;28;20262;-93
2022/09/12 10:48:23;;;;;;;25.30;15.40;;;17.20;99.90;;;;;;4958852;28;20210;-93
2022/09/12 10:50:54;;;;;;;30.60;15.77;;;17.30;99.90;;;;;;4962042;28;20199;-93
2022/09/12 10:53:27;;;;;;;34.67;16.20;;;17.30;99.90;;;;;;4958500;28;20208;-93
2022/09/12 10:56:10;;;;;;;29.40;16.33;;;17.30;99.90;;;;;;4978575;28;20207;-94
2022/09/12 10:59:10;;;;;;;28.63;16.30;;;17.30;99.90;;;;;;4978742;28;20320;-93
2022/09/12 11:01:50;;;;;;;26.47;16.23;;;17.30;99.90;;;;;;4977497;28;20214;-93
2022/09/12 11:04:38;;;;;;;26.63;16.77;;;17.30;99.90;;;;;;4979184;28;20234;-93
2022/09/12 11:07:36;;;;;;;31.77;16.33;;;17.30;99.90;;;;;;4977814;28;20285;-93
2022/09/12 11:10:22;;;;;;;27.33;16.20;;;17.30;99.90;;;;;;4978358;28;20203;-93
2022/09/12 11:13:04;;;;;;;32.47;17.70;;;17.30;99.90;;;;;;4977120;28;20234;-93
2022/09/12 11:16:09;;;;;;;29.70;17.23;;;17.20;99.90;;;;;;4977897;28;20245;-92
2022/09/12 11:19:03;;;;;;;31.10;16.67;;;17.20;99.90;;;;;;4978169;28;20299;-93
2022/09/12 11:21:58;;;;;;;30.03;16.90;;;17.20;99.90;;;;;;4977398;28;20203;-94
2022/09/12 11:24:50;;;;;;;27.10;17.20;;;17.20;99.90;;;;;;4978597;28;20694;-93
2022/09/12 11:27:36;;;;;;;32.60;17.77;;;17.20;99.90;;;;;;4977468;28;20213;-93
2022/09/12 11:30:11;;;;;;;28.63;16.73;;;17.20;99.90;;;;;;4978577;28;20215;-93
2022/09/12 11:33:05;;;;;;;32.17;16.83;;;17.30;99.90;;;;;;4978329;28;20222;-93
2022/09/12 11:35:48;;;;;;;31.83;16.90;;;17.30;99.90;;;;;;4977301;28;20210;-93
2022/09/12 11:38:46;;;;;;;31.00;17.33;;;17.30;99.90;;;;;;4979795;28;20271;-93
2022/09/12 11:41:24;;;;;;;27.57;16.80;;;17.30;99.90;;;;;;4981002;28;20199;-93
2022/09/12 11:44:01;;;;;;;26.70;16.20;;;17.30;99.90;;;;;;4978701;28;20207;-92
2022/09/12 11:46:37;;;;;;;28.13;16.33;;;17.30;99.90;;;;;;4977090;28;20245;-93
2022/09/12 11:49:20;;;;;;;27.13;17.07;;;17.40;99.90;;;;;;4982054;28;20213;-93
2022/09/12 11:51:59;;;;;;;30.70;17.50;;;17.40;99.90;;;;;;4978377;28;20271;-93
2022/09/12 11:54:37;;;;;;;23.60;16.40;;;17.40;99.90;;;;;;4980438;28;20265;-93
2022/09/12 11:57:18;;;;;;;23.77;16.50;;;17.30;99.90;;;;;;4981780;28;20215;-93
2022/09/12 11:59:53;;;;;;;29.10;16.90;;;17.30;99.90;;;;;;4982944;28;20214;-93
2022/09/12 12:02:28;;;;;;;30.27;17.87;;;17.30;99.90;;;;;;4965234;28;20219;-93
2022/09/12 12:05:21;;;;;;;28.10;16.47;;;17.30;99.90;;;;;;4963530;29;20285;-93
2022/09/12 12:07:56;;;;;;;30.90;18.10;;;17.30;99.90;;;;;;4962035;28;20219;-93
2022/09/12 12:10:35;;;;;;;24.77;15.83;;;17.30;99.90;;;;;;4961020;29;20214;-93
2022/09/12 12:13:10;;;;;;;34.53;17.43;;;17.30;99.90;;;;;;4960682;29;20632;-93
2022/09/12 12:15:49;;;;;;;34.80;17.13;;;17.30;99.90;;;;;;4961295;29;20207;-91
2022/09/12 12:18:23;;;;;;;33.90;16.93;;;17.30;99.90;;;;;;4961187;28;20905;-91
2022/09/12 12:20:56;;;;;;;31.60;17.80;;;17.20;99.90;;;;;;4961516;29;20215;-91
2022/09/12 12:23:33;;;;;;;28.87;17.50;;;17.20;99.90;;;;;;4960374;29;20232;-91
2022/09/12 12:26:05;;;;;;;28.37;17.83;;;17.30;99.90;;;;;;4961860;29;20239;-91
2022/09/12 12:29:02;;;;;;;29.17;16.87;;;17.20;99.90;;;;;;4961443;29;20237;-90
2022/09/12 12:32:12;;;;;;;39.67;18.13;;;17.20;99.90;;;;;;4969333;28;20322;-93
2022/09/12 12:34:44;;;;;;;28.40;18.03;;;17.20;99.90;;;;;;4980406;28;20221;-90
2022/09/12 12:37:50;;;;;;;27.47;17.30;;;17.30;99.90;;;;;;4981011;28;20238;-93
2022/09/12 12:40:30;;;;;;;29.80;17.50;;;17.20;99.90;;;;;;4979994;28;20412;-93
2022/09/12 12:43:24;;;;;;;27.93;17.03;;;17.10;99.90;;;;;;4977819;28;20575;-92
2022/09/12 12:46:12;;;;;;;27.10;17.10;;;17.10;99.90;;;;;;4978780;28;20241;-92
2022/09/12 12:49:07;;;;;;;33.10;17.97;;;17.10;99.90;;;;;;4980306;28;20214;-92
2022/09/12 12:52:00;;;;;;;26.90;17.83;;;17.10;99.90;;;;;;4981551;28;20211;-91
2022/09/12 12:54:52;;;;;;;31.37;17.73;;;17.00;99.90;;;;;;4979813;28;20219;-92
2022/09/12 12:57:37;;;;;;;34.27;19.23;;;17.00;99.90;;;;;;4979863;28;20289;-91
2022/09/12 13:00:26;;;;;;;32.20;17.60;;;16.90;99.90;;;;;;4980264;28;20213;-92
2022/09/12 13:03:00;;;;;;;32.20;18.07;;;16.90;99.90;;;;;;4980778;28;20218;-92
2022/09/12 13:05:40;;;;;;;33.43;18.50;;;17.00;99.90;;;;;;4978945;28;20206;-92
2022/09/12 13:08:23;;;;;;;29.07;18.20;;;17.00;99.90;;;;;;4981208;28;20215;-92
2022/09/12 13:10:57;;;;;;;33.43;19.07;;;17.00;99.90;;;;;;4979938;28;20218;-90
2022/09/12 13:13:34;;;;;;;29.23;18.10;;;17.00;99.90;;;;;;4981041;28;20225;-92
2022/09/12 13:16:06;;;;;;;28.83;17.30;;;17.00;99.90;;;;;;4979613;28;20218;-92
2022/09/12 13:18:44;;;;;;;32.03;18.10;;;17.00;99.90;;;;;;4979733;28;20207;-91
2022/09/12 13:21:17;;;;;;;34.77;18.07;;;17.00;99.90;;;;;;4979689;28;20726;-91
2022/09/12 13:24:02;;;;;;;28.93;18.73;;;17.00;99.90;;;;;;4979161;28;20215;-94
2022/09/12 13:26:42;;;;;;;30.10;18.93;;;16.90;99.90;;;;;;4981017;28;20243;-92
2022/09/12 13:29:18;;;;;;;36.53;19.47;;;16.90;99.90;;;;;;4979553;28;20255;-91
2022/09/12 13:31:52;;;;;;;31.23;17.90;;;16.90;99.90;;;;;;4982859;28;20230;-92
2022/09/12 13:34:27;;;;;;;34.33;19.27;;;16.80;99.90;;;;;;4982184;28;20224;-92
2022/09/12 13:37:26;;;;;;;27.80;18.47;;;16.80;99.90;;;;;;4979628;28;20213;-92
2022/09/12 13:40:07;;;;;;;31.67;18.87;;;16.80;99.90;;;;;;4981814;28;20241;-92
2022/09/12 13:42:43;;;;;;;34.10;19.10;;;16.80;99.90;;;;;;4984325;28;20211;-92
2022/09/12 13:45:21;;;;;;;34.97;20.07;;;16.80;99.90;;;;;;4993459;28;20251;-93
2022/09/12 13:47:56;;;;;;;34.23;20.23;;;16.80;99.90;;;;;;4998051;28;20294;-93
2022/09/12 13:50:30;;;;;;;28.30;18.23;;;16.70;99.90;;;;;;4997583;28;20266;-93
2022/09/12 13:53:03;;;;;;;36.07;20.17;;;16.70;99.90;;;;;;4994324;28;20241;-94
2022/09/12 13:55:37;;;;;;;35.20;19.47;;;16.70;99.90;;;;;;4987676;28;20215;-94
2022/09/12 13:58:21;;;;;;;34.10;20.57;;;16.70;99.90;;;;;;4980035;28;20214;-93
2022/09/12 14:01:09;;;;;;;32.60;19.53;;;16.70;99.90;;;;;;4982073;28;20266;-94
2022/09/12 14:06:43;;;;;;;40.67;20.13;;;16.80;99.90;;;;;;4981116;28;20234;-94
2022/09/12 14:09:17;;;;;;;36.23;19.67;;;16.80;99.90;;;;;;4978652;28;20217;-93
2022/09/12 14:11:54;;;;;;;33.17;19.00;;;16.70;99.90;;;;;;4987467;28;20221;-94
2022/09/12 14:14:34;;;;;;;33.70;20.43;;;16.60;99.90;;;;;;4982226;28;20210;-94
2022/09/12 14:17:28;;;;;;;42.13;21.60;;;16.60;99.90;;;;;;4979297;28;20214;-94
2022/09/12 14:23:03;;;;;;;36.77;20.67;;;16.60;99.90;;;;;;4997747;23;20249;-93
2022/09/12 14:25:46;;;;;;;37.53;20.33;;;16.50;99.90;;;;;;4990962;28;20211;-94
2022/09/12 14:28:20;;;;;;;38.83;20.63;;;16.50;99.90;;;;;;4990755;28;20310;-93
2022/09/12 14:31:06;;;;;;;44.60;20.70;;;16.50;99.90;;;;;;4990037;28;20254;-94
2022/09/12 14:34:10;;;;;;;39.63;20.17;;;16.50;99.90;;;;;;4986980;28;20221;-94
2022/09/12 14:36:56;;;;;;;40.23;21.07;;;16.50;99.90;;;;;;4991121;28;20218;-94